Time;durP1;ratioP1;P1;durP2;ratioP2;P2;SDS_P1;SDS_P2;PMS_P1;PMS_P2;Temp;Humidity;BMP_temperature;BMP_pressure;BME280_temperature;BME280_humidity;BME280_pressure;Samples;Min_cycle;Max_cycle;Signal;HPM_P1;HPM_P2
2021/12/17 00:04:37;;;;;;;51.33;8.10;;;;;;;;;;5051486;28;20163;-48
2021/12/17 00:07:09;;;;;;;46.53;7.40;;;5.20;99.90;;;;;;5051179;28;20337;-47
2021/12/17 00:09:36;;;;;;;48.63;7.70;;;5.30;99.90;;;;;;5050813;28;20227;-47
2021/12/17 00:12:03;;;;;;;60.77;9.37;;;;;;;;;;5050827;28;20203;-48
2021/12/17 00:14:36;;;;;;;52.77;8.17;;;;;;;;;;5050716;28;20650;-48
2021/12/17 00:17:04;;;;;;;53.60;8.33;;;;;;;;;;5051094;28;20156;-46
2021/12/17 00:44:12;;;;;;;53.57;8.47;;;5.30;99.90;;;;;;5030704;28;20176;-47
2021/12/17 00:49:19;;;;;;;56.93;8.77;;;5.30;99.90;;;;;;5030913;28;20213;-48
2021/12/17 00:51:59;;;;;;;52.63;8.33;;;;;;;;;;5030390;28;20200;-48
2021/12/17 00:54:34;;;;;;;47.07;7.37;;;4.80;99.90;;;;;;5030658;28;20184;-48
2021/12/17 00:57:15;;;;;;;25.53;4.43;;;5.30;99.90;;;;;;5030319;28;20648;-47
2021/12/17 00:59:45;;;;;;;48.20;7.47;;;5.30;99.90;;;;;;5030211;28;20218;-48
2021/12/17 01:02:14;;;;;;;43.23;6.87;;;5.30;99.90;;;;;;5030255;28;20296;-48
2021/12/17 01:04:44;;;;;;;44.60;6.93;;;5.00;99.90;;;;;;5030281;28;20211;-48
2021/12/17 01:07:11;;;;;;;53.10;8.23;;;5.20;99.90;;;;;;5029173;28;20157;-48
2021/12/17 01:09:37;;;;;;;59.20;9.07;;;5.20;99.90;;;;;;5030306;28;20231;-48
2021/12/17 01:12:06;;;;;;;53.10;8.27;;;5.30;99.90;;;;;;5030065;28;20255;-47
2021/12/17 01:14:33;;;;;;;47.63;7.43;;;5.40;99.90;;;;;;5030489;28;20678;-48
2021/12/17 01:17:00;;;;;;;47.47;7.40;;;5.40;99.90;;;;;;5030207;28;20651;-48
2021/12/17 01:24:51;;;;;;;31.73;5.23;;;5.40;99.90;;;;;;5030324;28;20163;-48
2021/12/17 01:35:31;;;;;;;52.10;8.03;;;5.50;99.90;;;;;;5030269;28;20227;-48
2021/12/17 01:43:07;;;;;;;68.67;10.27;;;5.50;99.90;;;;;;5029895;28;20667;-48
2021/12/17 01:45:37;;;;;;;47.47;7.50;;;5.50;99.90;;;;;;5029677;28;20184;-47
2021/12/17 01:48:07;;;;;;;41.50;6.60;;;5.40;99.90;;;;;;5030250;28;20184;-48
2021/12/17 02:01:26;;;;;;;45.63;7.37;;;;;;;;;;5033394;28;20179;-48
2021/12/17 02:03:51;;;;;;;54.47;8.33;;;5.70;99.90;;;;;;5033643;28;20604;-48
2021/12/17 02:06:18;;;;;;;49.50;7.90;;;;;;;;;;5033701;28;20210;-48
2021/12/17 02:08:46;;;;;;;46.97;7.33;;;5.80;99.90;;;;;;5033430;28;20199;-48
2021/12/17 02:19:42;;;;;;;54.53;8.47;;;5.60;99.90;;;;;;5033442;28;20283;-48
2021/12/17 02:32:49;;;;;;;41.17;6.60;;;;;;;;;;5033454;28;20242;-48
2021/12/17 02:35:35;;;;;;;43.13;7.07;;;5.60;99.90;;;;;;5032869;28;20557;-47
2021/12/17 02:38:02;;;;;;;49.57;7.80;;;5.80;99.90;;;;;;5032892;28;20536;-48
2021/12/17 02:45:48;;;;;;;50.57;8.07;;;5.60;99.90;;;;;;5032999;28;20183;-48
2021/12/17 02:48:14;;;;;;;50.53;7.87;;;;;;;;;;5032766;28;20184;-47
2021/12/17 02:50:45;;;;;;;43.63;7.10;;;5.60;99.90;;;;;;5031650;28;20184;-48
2021/12/17 02:53:13;;;;;;;47.60;7.60;;;5.60;99.90;;;;;;5031324;28;20296;-48
2021/12/17 02:55:42;;;;;;;57.40;8.93;;;5.60;99.90;;;;;;5032674;28;20168;-47
2021/12/17 02:58:08;;;;;;;38.97;6.47;;;3.00;99.90;;;;;;5032650;28;20651;-48
2021/12/17 03:00:37;;;;;;;20.93;3.73;;;5.90;99.90;;;;;;5032458;28;20729;-48
2021/12/17 03:03:06;;;;;;;51.63;8.13;;;5.70;99.90;;;;;;5032252;28;20200;-48
2021/12/17 03:05:33;;;;;;;57.73;9.00;;;;;;;;;;5032118;28;20179;-48
2021/12/17 03:07:59;;;;;;;45.87;7.30;;;;;;;;;;5032401;28;20250;-45
2021/12/17 03:10:26;;;;;;;59.33;9.37;;;5.70;99.90;;;;;;5032029;28;20192;-48
2021/12/17 03:12:58;;;;;;;43.37;7.03;;;;;;;;;;5032361;28;20231;-47
2021/12/17 03:23:30;;;;;;;54.93;8.70;;;;;;;;;;5032266;28;20203;-48
2021/12/17 03:25:58;;;;;;;61.90;9.87;;;5.70;99.90;;;;;;5031846;28;20622;-48
2021/12/17 03:28:25;;;;;;;56.67;9.00;;;;;;;;;;5031776;28;20187;-48
2021/12/17 03:30:51;;;;;;;43.53;6.97;;;;;;;;;;5031902;28;20544;-47
2021/12/17 03:33:17;;;;;;;48.13;7.70;;;;;;;;;;5031731;28;20232;-48
2021/12/17 03:35:43;;;;;;;50.13;8.03;;;;;;;;;;5031575;28;20257;-48
2021/12/17 03:38:09;;;;;;;60.10;9.43;;;;;;;;;;5032179;28;20188;-48
2021/12/17 03:40:35;;;;;;;44.57;7.20;;;;;;;;;;5031576;28;20299;-48
2021/12/17 03:43:04;;;;;;;56.27;9.00;;;;;;;;;;5031371;28;20203;-48
2021/12/17 03:45:30;;;;;;;51.77;8.33;;;5.70;99.90;;;;;;5031465;28;20172;-48
2021/12/17 03:47:57;;;;;;;45.77;7.43;;;5.70;99.90;;;;;;5031539;28;20173;-48
2021/12/17 03:50:23;;;;;;;49.70;7.80;;;5.70;99.90;;;;;;5031571;28;20176;-48
2021/12/17 03:52:49;;;;;;;44.33;7.17;;;5.60;99.90;;;;;;5031709;28;20232;-48
2021/12/17 03:55:15;;;;;;;50.57;8.07;;;;;;;;;;5029975;28;20177;-48
2021/12/17 03:57:41;;;;;;;41.27;6.73;;;;;;;;;;5031605;28;20182;-48
2021/12/17 04:00:09;;;;;;;42.47;6.67;;;5.70;99.90;;;;;;5031279;28;20265;-48
2021/12/17 04:02:36;;;;;;;52.03;8.17;;;;;;;;;;5029666;28;20571;-48
2021/12/17 04:05:03;;;;;;;50.07;8.07;;;5.70;99.90;;;;;;5031045;28;20187;-48
2021/12/17 04:07:29;;;;;;;58.57;9.30;;;;;;;;;;5031249;28;20188;-47
2021/12/17 04:09:54;;;;;;;50.43;8.03;;;;;;;;;;5031067;28;20188;-48
2021/12/17 04:12:28;;;;;;;50.30;7.97;;;;;;;;;;5031218;28;20225;-47
2021/12/17 04:14:54;;;;;;;47.13;7.50;;;;;;;;;;5030831;28;20184;-48
2021/12/17 04:17:25;;;;;;;31.23;5.23;;;5.80;99.90;;;;;;5031174;28;20187;-48
2021/12/17 04:19:51;;;;;;;55.47;8.77;;;5.80;99.90;;;;;;5030248;28;20533;-48
2021/12/17 04:22:17;;;;;;;47.37;7.60;;;5.90;99.90;;;;;;5030909;28;20219;-48
2021/12/17 04:24:42;;;;;;;22.97;3.93;;;5.80;99.90;;;;;;5030926;28;20181;-48
2021/12/17 04:27:08;;;;;;;51.70;8.20;;;6.10;99.90;;;;;;5030734;28;20176;-48
2021/12/17 04:29:40;;;;;;;46.13;7.40;;;;;;;;;;5031129;28;20207;-48
2021/12/17 04:32:06;;;;;;;38.07;6.33;;;6.00;99.90;;;;;;5030895;28;20231;-48
2021/12/17 04:34:32;;;;;;;46.23;7.57;;;;;;;;;;5030791;28;20191;-48
2021/12/17 04:36:58;;;;;;;47.57;7.67;;;;;;;;;;5030844;28;20256;-48
2021/12/17 04:39:25;;;;;;;48.40;7.70;;;;;;;;;;5030763;28;20196;-48
2021/12/17 04:44:22;;;;;;;78.03;11.80;;;;;;;;;;5030952;28;20200;-48
2021/12/17 04:57:15;;;;;;;44.23;7.07;;;5.90;99.90;;;;;;5030761;28;20239;-48
2021/12/17 04:57:47;;;;;;;42.67;6.80;;;;;;;;;;5030642;28;20606;-47
2021/12/17 05:00:18;;;;;;;47.03;7.47;;;5.70;99.90;;;;;;5030121;28;20246;-48
2021/12/17 05:02:48;;;;;;;40.43;6.67;;;5.60;99.90;;;;;;5030747;28;20275;-48
2021/12/17 05:05:15;;;;;;;51.47;8.10;;;5.70;99.90;;;;;;5030396;28;20259;-48
2021/12/17 05:07:49;;;;;;;35.07;5.67;;;5.60;99.90;;;;;;5030597;28;20176;-47
2021/12/17 05:18:32;;;;;;;44.03;6.73;;;;;;;;;;5030555;28;20532;-47
2021/12/17 05:21:02;;;;;;;47.23;7.30;;;5.60;99.90;;;;;;5030122;28;20291;-48
2021/12/17 05:23:31;;;;;;;44.97;6.97;;;5.70;99.90;;;;;;5030568;28;20263;-48
2021/12/17 05:25:59;;;;;;;27.70;4.30;;;5.70;99.90;;;;;;5030555;28;20203;-48
2021/12/17 05:28:25;;;;;;;51.07;7.53;;;;;;;;;;5029834;28;20555;-47
2021/12/17 05:30:52;;;;;;;53.73;8.00;;;;;;;;;;5030698;28;20223;-48
2021/12/17 05:33:22;;;;;;;47.80;7.20;;;5.60;99.90;;;;;;5033814;28;20232;-48
2021/12/17 05:35:48;;;;;;;54.47;7.87;;;5.50;99.90;;;;;;5034091;28;20188;-48
2021/12/17 05:38:15;;;;;;;45.67;6.80;;;5.70;99.90;;;;;;5034179;28;20190;-48
2021/12/17 05:40:42;;;;;;;43.07;6.30;;;5.60;99.90;;;;;;5033620;28;20295;-46
2021/12/17 05:43:07;;;;;;;59.97;8.63;;;5.70;99.90;;;;;;5033957;28;20655;-48
2021/12/17 05:45:48;;;;;;;52.30;7.63;;;6.30;99.90;;;;;;5032503;28;20211;-47
2021/12/17 05:48:16;;;;;;;48.73;7.03;;;5.60;99.90;;;;;;5033884;28;20156;-47
2021/12/17 05:50:44;;;;;;;51.83;7.60;;;5.70;99.90;;;;;;5033721;28;20264;-48
2021/12/17 05:53:10;;;;;;;47.57;7.10;;;5.60;99.90;;;;;;5033470;28;20231;-47
2021/12/17 05:55:37;;;;;;;53.40;7.80;;;;;;;;;;5033533;28;20175;-48
2021/12/17 05:58:04;;;;;;;51.80;7.67;;;5.60;99.90;;;;;;5033851;28;20177;-48
2021/12/17 06:00:30;;;;;;;27.93;4.47;;;5.10;99.90;;;;;;5033061;28;20648;-48
2021/12/17 06:02:57;;;;;;;46.77;6.90;;;5.60;99.90;;;;;;5031345;28;20282;-48
2021/12/17 06:05:23;;;;;;;52.80;7.70;;;;;;;;;;5032844;28;20532;-48
2021/12/17 06:07:49;;;;;;;52.67;7.83;;;5.60;99.90;;;;;;5033441;28;20172;-48
2021/12/17 06:10:15;;;;;;;49.30;7.27;;;5.50;99.90;;;;;;5033155;28;20199;-48
2021/12/17 06:12:41;;;;;;;50.70;7.53;;;;;;;;;;5033086;28;20196;-47
2021/12/17 06:15:10;;;;;;;52.07;7.63;;;5.50;99.90;;;;;;5033273;28;20525;-46
2021/12/17 06:17:36;;;;;;;55.93;8.30;;;;;;;;;;5033087;28;20176;-48
2021/12/17 06:20:02;;;;;;;41.43;6.33;;;;;;;;;;5031856;28;20219;-48
2021/12/17 06:22:28;;;;;;;43.27;6.57;;;;;;;;;;5033302;28;20648;-48
2021/12/17 06:24:54;;;;;;;59.60;8.60;;;;;;;;;;5032969;28;20172;-47
2021/12/17 06:27:21;;;;;;;35.80;5.43;;;5.40;99.90;;;;;;5033387;28;20188;-48
2021/12/17 06:29:47;;;;;;;49.60;7.23;;;5.40;99.90;;;;;;5032974;28;20211;-48
2021/12/17 06:32:13;;;;;;;43.67;6.63;;;5.40;99.90;;;;;;5032613;28;20613;-48
2021/12/17 06:34:39;;;;;;;45.53;6.83;;;5.30;99.90;;;;;;5032568;28;20222;-47
2021/12/17 06:37:05;;;;;;;46.93;6.90;;;;;;;;;;5033062;28;20173;-48
2021/12/17 06:39:32;;;;;;;41.40;6.20;;;5.30;99.90;;;;;;5033106;28;20231;-50
2021/12/17 06:41:58;;;;;;;45.20;6.63;;;;;;;;;;5030970;28;20192;-50
2021/12/17 06:44:26;;;;;;;40.83;6.03;;;5.30;99.90;;;;;;5032683;28;20211;-50
2021/12/17 07:23:54;;;;;;;41.17;6.13;;;;;;;;;;5051930;28;20564;-49
2021/12/17 07:34:06;;;;;;;31.97;5.07;;;5.20;99.90;;;;;;5052288;28;20196;-49
2021/12/17 07:38:35;;;;;;;55.97;8.40;;;5.10;99.90;;;;;;5050324;28;20184;-49
2021/12/17 07:39:30;;;;;;;41.23;6.33;;;;;;;;;;5051749;28;20744;-49
2021/12/17 07:41:55;;;;;;;19.93;3.47;;;5.30;99.90;;;;;;5051520;28;20192;-50
2021/12/17 07:44:21;;;;;;;44.40;6.73;;;5.10;99.90;;;;;;5050162;28;20187;-49
2021/12/17 07:46:47;;;;;;;41.97;6.27;;;5.30;99.90;;;;;;5051347;28;20178;-49
2021/12/17 07:49:13;;;;;;;29.93;4.63;;;;;;;;;;5051739;28;20179;-49
2021/12/17 07:51:38;;;;;;;50.67;7.60;;;4.80;99.90;;;;;;5051619;28;20643;-49
2021/12/17 07:54:05;;;;;;;53.13;8.07;;;;;;;;;;5050486;28;20175;-48
2021/12/17 07:56:37;;;;;;;48.00;7.23;;;;;;;;;;5051242;28;20172;-49
2021/12/17 07:59:11;;;;;;;43.30;6.67;;;5.00;99.90;;;;;;5051415;28;20251;-48
2021/12/17 08:01:37;;;;;;;29.57;4.87;;;5.20;99.90;;;;;;5051059;28;20235;-49
2021/12/17 08:04:08;;;;;;;38.80;6.03;;;4.90;99.90;;;;;;5049777;28;20263;-49
2021/12/17 08:06:35;;;;;;;42.80;6.57;;;5.00;99.90;;;;;;5051166;28;20683;-49
2021/12/17 08:09:03;;;;;;;37.67;5.83;;;5.20;99.90;;;;;;5051105;28;20263;-50
2021/12/17 08:11:31;;;;;;;53.27;7.73;;;;;;;;;;5051189;28;20215;-49
2021/12/17 08:13:57;;;;;;;64.10;9.50;;;;;;;;;;5050443;28;20178;-50
2021/12/17 08:32:05;;;;;;;41.50;6.47;;;5.00;99.90;;;;;;5050691;28;20204;-47
2021/12/17 08:34:32;;;;;;;24.60;4.10;;;5.00;99.90;;;;;;5051228;28;20299;-47
2021/12/17 08:36:58;;;;;;;45.50;7.23;;;2.70;99.90;;;;;;5050682;28;20525;-47
2021/12/17 08:39:29;;;;;;;51.40;7.80;;;5.00;99.90;;;;;;5050306;28;20331;-47
2021/12/17 08:41:55;;;;;;;35.03;5.60;;;;;;;;;;5039736;28;20263;-47
2021/12/17 08:44:22;;;;;;;34.13;5.30;;;6.10;99.90;;;;;;5028842;28;20668;-47
2021/12/17 08:46:48;;;;;;;52.13;8.00;;;5.10;99.90;;;;;;5030330;28;20227;-46
2021/12/17 08:49:14;;;;;;;38.47;6.00;;;;;;;;;;5030468;28;20180;-47
2021/12/17 08:51:42;;;;;;;45.33;6.97;;;5.00;99.90;;;;;;5030616;28;20192;-47
2021/12/17 08:54:08;;;;;;;22.60;3.67;;;;;;;;;;5030596;28;20181;-47
2021/12/17 08:56:36;;;;;;;77.87;11.30;;;5.00;99.90;;;;;;5029830;28;20179;-45
2021/12/17 08:59:06;;;;;;;75.83;11.27;;;5.00;99.90;;;;;;5029248;28;20176;-46
2021/12/17 09:01:32;;;;;;;58.47;8.73;;;;;;;;;;5040362;28;20203;-47
2021/12/17 09:03:58;;;;;;;39.10;6.10;;;;;;;;;;5050395;28;20210;-46
2021/12/17 09:06:26;;;;;;;48.23;7.40;;;;;;;;;;5050229;28;20249;-47
2021/12/17 09:08:56;;;;;;;29.90;4.80;;;5.20;99.90;;;;;;5050657;28;20202;-47
2021/12/17 09:11:24;;;;;;;49.67;7.17;;;5.20;99.90;;;;;;5049937;28;20642;-47
2021/12/17 09:13:51;;;;;;;56.93;8.47;;;5.20;99.90;;;;;;5050162;28;20647;-47
2021/12/17 09:16:17;;;;;;;58.00;8.43;;;;;;;;;;5050037;28;20635;-50
2021/12/17 09:18:45;;;;;;;44.93;6.73;;;;;;;;;;5050500;28;20215;-49
2021/12/17 09:21:11;;;;;;;45.63;6.70;;;;;;;;;;5038351;28;20560;-49
2021/12/17 09:23:37;;;;;;;59.10;8.67;;;;;;;;;;5035528;28;20229;-49
2021/12/17 09:26:06;;;;;;;73.13;10.43;;;;;;;;;;5049784;28;20504;-49
2021/12/17 09:28:32;;;;;;;43.17;6.33;;;;;;;;;;5050322;28;20236;-49
2021/12/17 09:30:58;;;;;;;50.33;7.33;;;5.50;99.90;;;;;;5049958;28;20171;-49
2021/12/17 09:33:25;;;;;;;38.40;5.93;;;5.60;99.90;;;;;;5049761;28;20206;-50
2021/12/17 09:35:51;;;;;;;33.60;5.20;;;;;;;;;;5049805;28;20172;-49
2021/12/17 09:38:17;;;;;;;55.20;8.17;;;;;;;;;;5050122;28;20640;-50
2021/12/17 09:40:43;;;;;;;43.93;6.60;;;5.40;99.90;;;;;;5049592;28;20203;-49
2021/12/17 09:43:10;;;;;;;22.03;3.63;;;5.50;99.90;;;;;;5050115;28;20676;-49
2021/12/17 09:45:36;;;;;;;31.80;4.97;;;;;;;;;;5049277;28;20656;-49
2021/12/17 09:48:02;;;;;;;32.63;5.00;;;7.10;99.90;;;;;;5050431;28;20214;-50
2021/12/17 09:50:28;;;;;;;34.53;5.30;;;5.50;99.90;;;;;;5049869;28;20187;-49
2021/12/17 09:52:55;;;;;;;53.90;7.93;;;;;;;;;;5048771;28;20204;-49
2021/12/17 09:55:21;;;;;;;24.50;3.97;;;;;;;;;;5049789;28;20267;-50
2021/12/17 09:57:47;;;;;;;28.57;4.47;;;;;;;;;;5049629;28;20172;-50
2021/12/17 10:00:21;;;;;;;40.13;6.10;;;4.90;99.90;;;;;;5050125;28;20226;-50
2021/12/17 10:02:48;;;;;;;46.00;6.77;;;5.40;99.90;;;;;;5050369;28;20207;-50
2021/12/17 10:05:17;;;;;;;44.90;6.67;;;5.50;99.90;;;;;;5048765;28;20184;-49
2021/12/17 10:07:44;;;;;;;40.47;6.10;;;5.50;99.90;;;;;;5047446;28;20716;-50
2021/12/17 10:10:10;;;;;;;56.23;8.10;;;;;;;;;;5048339;28;20211;-49
2021/12/17 10:12:38;;;;;;;54.87;8.13;;;5.40;99.90;;;;;;5048335;28;20588;-50
2021/12/17 10:15:18;;;;;;;50.63;7.57;;;5.80;99.90;;;;;;5048362;28;20179;-50
2021/12/17 10:18:00;;;;;;;37.70;5.93;;;5.50;99.90;;;;;;5050361;28;20234;-49
2021/12/17 10:20:29;;;;;;;36.07;5.63;;;5.50;99.90;;;;;;5052477;28;20198;-49
2021/12/17 10:23:08;;;;;;;38.53;5.93;;;5.60;99.90;;;;;;5053567;28;20196;-48
2021/12/17 10:25:37;;;;;;;36.23;5.60;;;5.50;99.90;;;;;;5053445;28;20160;-49
2021/12/17 10:28:06;;;;;;;28.87;4.63;;;5.60;99.90;;;;;;5053125;28;20175;-50
2021/12/17 10:30:35;;;;;;;50.10;7.60;;;5.60;99.90;;;;;;5053015;28;20223;-49
2021/12/17 10:33:04;;;;;;;42.67;6.53;;;5.60;99.90;;;;;;5053289;28;20222;-49
2021/12/17 10:35:35;;;;;;;34.83;5.30;;;5.60;99.90;;;;;;5052898;28;20644;-50
2021/12/17 10:38:11;;;;;;;46.67;6.83;;;5.60;99.90;;;;;;5053482;28;20168;-49
2021/12/17 10:43:36;;;;;;;34.53;5.13;;;5.60;99.90;;;;;;5053005;28;20736;-49
2021/12/17 10:46:09;;;;;;;47.40;6.87;;;5.50;99.90;;;;;;5053011;28;20243;-48
2021/12/17 10:54:22;;;;;;;16.53;2.87;;;5.80;99.90;;;;;;5052999;28;20195;-49
2021/12/17 10:56:52;;;;;;;31.83;4.90;;;5.70;99.90;;;;;;5051224;28;20183;-50
2021/12/17 10:59:25;;;;;;;42.30;6.40;;;5.80;99.90;;;;;;5052486;28;20222;-49
2021/12/17 11:01:54;;;;;;;37.33;5.90;;;5.40;99.90;;;;;;5052920;28;20686;-49
2021/12/17 11:04:27;;;;;;;33.37;5.30;;;5.90;99.90;;;;;;5052594;28;20174;-50
2021/12/17 11:07:13;;;;;;;29.33;4.50;;;5.90;99.90;;;;;;5052566;28;20483;-50
2021/12/17 11:10:00;;;;;;;29.67;4.57;;;6.30;99.90;;;;;;5052834;28;20286;-49
2021/12/17 11:12:38;;;;;;;38.80;5.87;;;5.90;99.90;;;;;;5052683;28;20223;-49
2021/12/17 11:15:20;;;;;;;42.77;6.37;;;6.20;99.90;;;;;;5052453;28;20172;-49
2021/12/17 11:17:48;;;;;;;31.67;4.93;;;5.90;99.90;;;;;;5052737;28;20183;-48
2021/12/17 11:20:16;;;;;;;35.83;5.40;;;5.80;99.90;;;;;;5051437;28;20529;-49
2021/12/17 11:22:44;;;;;;;45.83;6.83;;;6.00;99.90;;;;;;5052131;28;20218;-48
2021/12/17 11:25:10;;;;;;;48.90;7.23;;;;;;;;;;5051551;28;20179;-49
2021/12/17 11:27:37;;;;;;;33.13;5.17;;;6.00;99.90;;;;;;5052182;28;20172;-47
2021/12/17 11:30:13;;;;;;;55.40;8.17;;;6.10;99.90;;;;;;5049941;28;20218;-49
2021/12/17 11:32:41;;;;;;;38.00;5.87;;;6.10;99.90;;;;;;5052210;28;20285;-49
2021/12/17 11:35:07;;;;;;;53.73;7.83;;;5.90;99.90;;;;;;5051911;28;20274;-49
2021/12/17 11:37:33;;;;;;;42.83;6.37;;;5.90;99.90;;;;;;5051918;28;20279;-49
2021/12/17 11:40:03;;;;;;;52.23;7.83;;;6.00;99.90;;;;;;5051813;28;20203;-48
2021/12/17 11:42:59;;;;;;;32.27;4.97;;;5.50;99.90;;;;;;5050736;28;20230;-49
2021/12/17 11:45:27;;;;;;;41.80;6.13;;;6.00;99.90;;;;;;5051474;28;20184;-48
2021/12/17 11:48:09;;;;;;;35.73;5.47;;;6.00;99.90;;;;;;5051738;28;20258;-48
2021/12/17 11:50:35;;;;;;;36.53;5.63;;;6.10;99.90;;;;;;5051468;28;20194;-48
2021/12/17 11:53:18;;;;;;;14.90;2.67;;;6.00;99.90;;;;;;5051574;28;20481;-49
2021/12/17 11:55:46;;;;;;;52.23;7.57;;;6.00;99.90;;;;;;5051031;28;20171;-49
2021/12/17 11:58:15;;;;;;;25.63;3.97;;;5.90;99.90;;;;;;5051440;28;20592;-48
2021/12/17 12:00:41;;;;;;;35.53;5.50;;;6.00;99.90;;;;;;5051492;28;20299;-49
2021/12/17 12:03:19;;;;;;;49.83;7.27;;;6.10;99.90;;;;;;5051448;28;20610;-49
2021/12/17 12:05:50;;;;;;;67.97;9.60;;;6.00;99.90;;;;;;5051137;28;20175;-49
2021/12/17 12:08:28;;;;;;;32.47;4.97;;;6.10;99.90;;;;;;5051948;28;20172;-49
2021/12/17 12:11:17;;;;;;;34.80;5.30;;;6.10;99.90;;;;;;5049837;28;20195;-49
2021/12/17 12:13:46;;;;;;;27.77;4.33;;;6.20;99.90;;;;;;5051545;28;20168;-49
2021/12/17 12:16:23;;;;;;;45.47;6.87;;;6.20;99.90;;;;;;5051121;28;20186;-49
2021/12/17 12:19:07;;;;;;;43.40;6.60;;;6.10;99.90;;;;;;5051374;28;20171;-49
2021/12/17 12:21:35;;;;;;;8.03;1.60;;;6.30;99.90;;;;;;5051594;28;20576;-49
2021/12/17 12:24:16;;;;;;;20.93;3.50;;;6.20;99.90;;;;;;5051139;28;20498;-49
2021/12/17 12:26:46;;;;;;;33.97;5.27;;;6.20;99.90;;;;;;5051446;28;20187;-49
2021/12/17 12:29:17;;;;;;;37.63;5.80;;;6.20;99.90;;;;;;5051248;28;20175;-48
2021/12/17 12:31:49;;;;;;;29.53;4.67;;;6.50;99.90;;;;;;5049875;28;20207;-48
2021/12/17 12:34:21;;;;;;;30.23;4.93;;;6.20;99.90;;;;;;5051265;28;20148;-49
2021/12/17 12:36:52;;;;;;;36.30;5.83;;;6.40;99.90;;;;;;5050956;28;20170;-49
2021/12/17 12:39:46;;;;;;;33.60;5.33;;;6.40;99.90;;;;;;5049638;28;20178;-48
2021/12/17 12:42:21;;;;;;;35.27;5.37;;;6.80;99.90;;;;;;5051088;28;20745;-49
2021/12/17 12:44:50;;;;;;;29.57;4.70;;;6.30;99.90;;;;;;5050998;28;20163;-49
2021/12/17 12:47:35;;;;;;;39.43;6.33;;;6.30;99.90;;;;;;5051073;28;20186;-49
2021/12/17 12:50:04;;;;;;;37.93;6.00;;;6.40;99.90;;;;;;5050820;28;20306;-48
2021/12/17 12:52:45;;;;;;;29.73;4.93;;;6.00;99.90;;;;;;5051108;28;20662;-49
2021/12/17 12:55:23;;;;;;;49.03;7.37;;;6.40;99.90;;;;;;5051127;28;20249;-48
2021/12/17 12:57:59;;;;;;;51.73;8.00;;;6.40;99.90;;;;;;5050619;28;20172;-49
2021/12/17 13:00:42;;;;;;;54.27;8.20;;;6.10;99.90;;;;;;5049947;28;20191;-49
2021/12/17 13:03:11;;;;;;;23.63;4.00;;;6.30;99.90;;;;;;5050481;28;20608;-49
2021/12/17 13:05:38;;;;;;;35.17;5.53;;;6.30;99.90;;;;;;5050304;28;20184;-49
2021/12/17 13:08:06;;;;;;;33.23;5.13;;;6.50;99.90;;;;;;5050418;28;20175;-48
2021/12/17 13:10:36;;;;;;;20.60;3.40;;;6.40;99.90;;;;;;5050162;28;20555;-48
2021/12/17 13:13:18;;;;;;;46.47;7.10;;;6.40;99.90;;;;;;5051216;28;20199;-48
2021/12/17 13:15:50;;;;;;;30.87;4.87;;;6.40;99.90;;;;;;5050580;28;20624;-49
2021/12/17 13:24:14;;;;;;;46.40;7.23;;;6.40;99.90;;;;;;5050224;28;20160;-49
2021/12/17 13:26:49;;;;;;;41.40;6.30;;;6.40;99.90;;;;;;5050263;28;20164;-49
2021/12/17 13:29:34;;;;;;;33.37;5.40;;;6.40;99.90;;;;;;5050547;28;20198;-48
2021/12/17 13:32:02;;;;;;;15.30;2.73;;;6.40;99.90;;;;;;5048816;28;20238;-48
2021/12/17 13:34:39;;;;;;;45.00;6.90;;;6.30;99.90;;;;;;5050048;28;20172;-48
2021/12/17 13:37:11;;;;;;;16.33;2.80;;;6.40;99.90;;;;;;5050043;28;20255;-48
2021/12/17 13:39:42;;;;;;;51.80;7.87;;;6.40;99.90;;;;;;5048590;28;20194;-48
2021/12/17 13:42:12;;;;;;;36.57;5.77;;;6.30;99.90;;;;;;5050307;28;20260;-48
2021/12/17 13:44:45;;;;;;;28.83;4.57;;;6.30;99.90;;;;;;5049840;28;20183;-48
2021/12/17 13:47:22;;;;;;;55.20;8.17;;;6.40;99.90;;;;;;5050434;28;20218;-48
2021/12/17 13:50:02;;;;;;;54.00;8.27;;;6.30;99.90;;;;;;5049838;28;20218;-48
2021/12/17 13:52:30;;;;;;;31.27;5.07;;;6.20;99.90;;;;;;5051804;28;20679;-49
2021/12/17 13:54:59;;;;;;;41.60;6.27;;;6.20;99.90;;;;;;5053527;28;20183;-48
2021/12/17 13:57:28;;;;;;;16.43;2.90;;;6.20;99.90;;;;;;5053925;28;20262;-48
2021/12/17 14:00:04;;;;;;;35.57;5.63;;;6.10;99.90;;;;;;5053495;28;20393;-48
2021/12/17 14:02:34;;;;;;;37.40;6.00;;;6.20;99.90;;;;;;5053886;28;20813;-49
2021/12/17 14:05:24;;;;;;;42.23;6.57;;;6.20;99.90;;;;;;5053827;28;20214;-49
2021/12/17 14:07:52;;;;;;;36.97;5.70;;;6.50;99.90;;;;;;5053901;28;20608;-48
2021/12/17 14:10:21;;;;;;;54.97;8.10;;;6.20;99.90;;;;;;5053309;28;20203;-49
2021/12/17 14:12:47;;;;;;;17.77;3.20;;;6.20;99.90;;;;;;5053979;28;20196;-49
2021/12/17 14:15:28;;;;;;;10.43;2.00;;;6.10;99.90;;;;;;5052623;28;20210;-49
2021/12/17 14:18:06;;;;;;;18.03;3.20;;;6.10;99.90;;;;;;5034543;28;20173;-50
2021/12/17 14:20:42;;;;;;;43.57;6.67;;;6.20;99.90;;;;;;5033160;28;20215;-49
2021/12/17 14:23:11;;;;;;;30.03;4.87;;;6.10;99.90;;;;;;5033832;28;20214;-48
2021/12/17 14:25:39;;;;;;;40.80;6.37;;;;;;;;;;5033627;28;20652;-49
2021/12/17 14:28:12;;;;;;;57.37;8.53;;;6.20;99.90;;;;;;5033261;28;20181;-47
2021/12/17 14:30:39;;;;;;;39.10;6.10;;;6.00;99.90;;;;;;5033665;28;20172;-46
2021/12/17 14:33:07;;;;;;;38.73;5.93;;;6.10;99.90;;;;;;5033336;28;20545;-47
2021/12/17 14:35:45;;;;;;;47.17;7.00;;;6.10;99.90;;;;;;5032984;28;20179;-47
2021/12/17 14:38:11;;;;;;;48.70;7.23;;;;;;;;;;5033421;28;20160;-47
2021/12/17 14:40:48;;;;;;;45.13;6.80;;;6.20;99.90;;;;;;5033258;28;20684;-46
2021/12/17 14:43:26;;;;;;;42.93;6.53;;;6.20;99.90;;;;;;5033002;28;20238;-49
2021/12/17 14:46:24;;;;;;;50.43;7.53;;;6.10;99.90;;;;;;5031848;28;20395;-49
2021/12/17 14:49:13;;;;;;;16.90;3.00;;;6.10;99.90;;;;;;5033146;28;20544;-49
2021/12/17 15:04:48;;;;;;;52.77;7.83;;;5.90;99.90;;;;;;5032926;28;20257;-49
2021/12/17 15:07:13;;;;;;;12.23;2.13;;;5.90;99.90;;;;;;5031954;28;20263;-49
2021/12/17 15:09:43;;;;;;;28.50;4.43;;;5.90;99.90;;;;;;5032863;28;20184;-48
2021/12/17 15:12:36;;;;;;;31.63;5.03;;;5.90;99.90;;;;;;5032779;28;20192;-49
2021/12/17 15:14:59;;;;;;;37.03;5.63;;;6.00;99.90;;;;;;5032244;28;20259;-49
2021/12/17 15:17:25;;;;;;;30.03;4.83;;;6.00;99.90;;;;;;5032787;28;20183;-49
2021/12/17 15:19:51;;;;;;;21.20;3.53;;;6.10;99.90;;;;;;5032374;28;20668;-49
2021/12/17 15:22:17;;;;;;;37.33;5.83;;;;;;;;;;5032575;28;20282;-50
2021/12/17 15:24:42;;;;;;;29.27;4.60;;;5.90;99.90;;;;;;5032791;28;20411;-49
2021/12/17 15:27:08;;;;;;;33.87;5.43;;;6.00;99.90;;;;;;5062202;28;20189;-49
2021/12/17 15:29:34;;;;;;;38.37;5.93;;;6.00;99.90;;;;;;5072133;28;20635;-49
2021/12/17 15:31:59;;;;;;;28.13;4.57;;;5.80;99.90;;;;;;5072122;28;20686;-49
2021/12/17 15:34:25;;;;;;;38.40;5.93;;;5.80;99.90;;;;;;5072452;28;20179;-49
2021/12/17 15:36:53;;;;;;;38.07;5.87;;;5.70;99.90;;;;;;5072069;28;20199;-49
2021/12/17 15:39:18;;;;;;;21.73;3.73;;;5.90;99.90;;;;;;5071998;28;20181;-49
2021/12/17 15:41:44;;;;;;;52.47;8.00;;;5.90;99.90;;;;;;5071675;28;20195;-48
2021/12/17 15:44:10;;;;;;;35.63;5.47;;;5.80;99.90;;;;;;5071742;28;20175;-49
2021/12/17 15:46:37;;;;;;;31.07;4.90;;;5.90;99.90;;;;;;5060205;28;20167;-48
2021/12/17 15:49:04;;;;;;;36.63;5.77;;;5.90;99.90;;;;;;5051736;28;20558;-50
2021/12/17 15:51:30;;;;;;;34.43;5.33;;;5.90;99.90;;;;;;5052253;28;20206;-49
2021/12/17 15:53:55;;;;;;;36.30;5.70;;;5.90;99.90;;;;;;5051899;28;20175;-49
2021/12/17 15:56:22;;;;;;;24.03;3.77;;;6.00;99.90;;;;;;5051530;28;20528;-49
2021/12/17 15:58:47;;;;;;;36.60;5.60;;;5.90;99.90;;;;;;5052135;28;20264;-49
2021/12/17 16:01:14;;;;;;;39.83;5.97;;;;;;;;;;5051304;28;20278;-49
2021/12/17 16:03:42;;;;;;;42.77;6.50;;;;;;;;;;5051292;28;20179;-49
2021/12/17 16:06:09;;;;;;;31.60;4.87;;;6.00;99.90;;;;;;5052494;28;20168;-49
2021/12/17 16:08:43;;;;;;;33.47;5.37;;;5.80;99.90;;;;;;5052032;28;20545;-49
2021/12/17 16:11:31;;;;;;;28.43;4.47;;;;;;;;;;5051074;28;20155;-49
2021/12/17 16:17:06;;;;;;;36.80;5.63;;;5.90;99.90;;;;;;5051456;28;20211;-49
2021/12/17 16:22:16;;;;;;;35.20;5.37;;;5.90;99.90;;;;;;5051759;28;20199;-49
2021/12/17 16:24:41;;;;;;;29.27;4.60;;;5.80;99.90;;;;;;5051607;28;20176;-50
2021/12/17 16:27:07;;;;;;;29.57;4.63;;;5.80;99.90;;;;;;5051232;28;20176;-49
2021/12/17 16:29:33;;;;;;;37.10;5.73;;;5.90;99.90;;;;;;5051756;28;20503;-49
2021/12/17 16:31:59;;;;;;;11.47;2.23;;;5.80;99.90;;;;;;5050909;28;20207;-49
2021/12/17 16:34:25;;;;;;;33.17;5.13;;;5.80;99.90;;;;;;5051395;28;20167;-49
2021/12/17 16:36:51;;;;;;;28.23;4.47;;;5.90;99.90;;;;;;5051140;28;20164;-49
2021/12/17 16:39:17;;;;;;;32.77;5.10;;;5.80;99.90;;;;;;5051856;28;20182;-49
2021/12/17 16:41:43;;;;;;;29.67;4.57;;;5.80;99.90;;;;;;5051181;28;20721;-49
2021/12/17 16:44:12;;;;;;;32.83;5.07;;;5.80;99.90;;;;;;5050933;28;20195;-49
2021/12/17 16:49:15;;;;;;;13.47;2.47;;;5.70;99.90;;;;;;5051425;28;20198;-49
2021/12/17 16:51:42;;;;;;;30.00;4.53;;;5.80;99.90;;;;;;5051057;28;20203;-49